Time;durP1;ratioP1;P1;durP2;ratioP2;P2;SDS_P1;SDS_P2;PMS_P1;PMS_P2;Temp;Humidity;BMP_temperature;BMP_pressure;BME280_temperature;BME280_humidity;BME280_pressure;Samples;Min_cycle;Max_cycle;Signal;HPM_P1;HPM_P2
2022/09/11 00:01:15;;;;;;;62.60;42.45;;;21.90;65.80;;;;;;5087131;28;20021;-76
2022/09/11 00:03:43;;;;;;;43.42;29.58;;;21.90;65.70;;;;;;5090239;28;20036;-74
2022/09/11 00:06:15;;;;;;;26.23;16.05;;;21.90;65.70;;;;;;5087433;28;20605;-74
2022/09/11 00:08:42;;;;;;;22.67;10.32;;;21.80;65.50;;;;;;5090759;28;20028;-77
2022/09/11 00:11:19;;;;;;;12.77;5.68;;;21.70;65.40;;;;;;5082044;28;20123;-74
2022/09/11 00:13:48;;;;;;;10.20;5.40;;;21.70;65.30;;;;;;5081099;28;20024;-75
2022/09/11 00:16:18;;;;;;;10.38;5.03;;;21.60;65.30;;;;;;5068185;28;20031;-74
2022/09/11 00:18:47;;;;;;;10.82;5.57;;;21.60;65.70;;;;;;5090065;28;20028;-74
2022/09/11 00:21:14;;;;;;;91.75;67.65;;;21.60;65.50;;;;;;5078678;28;20111;-75
2022/09/11 00:23:43;;;;;;;70.97;49.33;;;21.60;65.60;;;;;;5085452;28;20036;-75
2022/09/11 00:26:09;;;;;;;56.08;39.42;;;21.60;65.70;;;;;;5089607;28;20032;-76
2022/09/11 00:28:38;;;;;;;33.97;21.35;;;21.50;65.80;;;;;;5078249;28;20032;-74
2022/09/11 00:31:06;;;;;;;25.30;15.07;;;21.50;65.60;;;;;;5069390;28;20047;-75
2022/09/11 00:33:33;;;;;;;15.55;8.85;;;21.50;65.80;;;;;;5081087;28;20067;-75
2022/09/11 00:36:02;;;;;;;23.90;12.52;;;21.50;65.70;;;;;;5088782;28;20024;-75
2022/09/11 00:38:32;;;;;;;11.60;4.53;;;21.50;65.80;;;;;;5079985;28;20476;-75
2022/09/11 00:40:59;;;;;;;10.02;4.88;;;21.50;65.50;;;;;;5084244;28;20034;-75
2022/09/11 00:43:27;;;;;;;10.43;5.25;;;21.40;65.70;;;;;;5089112;28;20024;-74
2022/09/11 00:45:58;;;;;;;8.43;4.65;;;21.50;65.80;;;;;;5088013;28;20032;-74
2022/09/11 00:48:29;;;;;;;10.98;3.83;;;21.50;65.70;;;;;;5050418;28;20038;-74
2022/09/11 00:50:58;;;;;;;9.02;3.92;;;21.50;65.80;;;;;;5087862;28;20032;-75
2022/09/11 00:53:29;;;;;;;21.20;4.70;;;21.50;65.90;;;;;;5086413;28;20105;-74
2022/09/11 00:55:58;;;;;;;7.40;4.10;;;21.50;65.90;;;;;;5082599;28;20553;-72
2022/09/11 00:58:29;;;;;;;11.45;3.30;;;21.50;65.50;;;;;;5070932;28;20077;-73
2022/09/11 01:00:55;;;;;;;10.00;3.63;;;21.50;65.30;;;;;;5087263;28;20051;-73
2022/09/11 01:03:25;;;;;;;18.90;3.30;;;21.60;65.10;;;;;;5084735;28;20025;-74
2022/09/11 01:05:51;;;;;;;;;;;21.60;65.60;;;;;;5067058;28;20032;-72
2022/09/11 01:08:19;;;;;;;6.22;3.35;;;21.70;64.80;;;;;;5083863;28;19915;-73
2022/09/11 01:11:06;;;;;;;7.75;3.63;;;21.70;64.80;;;;;;5086516;28;20032;-72
2022/09/11 01:13:41;;;;;;;7.47;3.58;;;21.70;65.00;;;;;;5087047;28;20039;-73
2022/09/11 01:16:07;;;;;;;7.93;3.58;;;21.70;65.10;;;;;;5087553;28;20051;-73
2022/09/11 01:18:43;;;;;;;8.95;3.80;;;21.70;64.70;;;;;;5086205;28;20035;-73
2022/09/11 01:21:27;;;;;;;7.45;3.30;;;21.80;65.30;;;;;;5082325;28;20024;-72
2022/09/11 01:24:03;;;;;;;7.05;3.55;;;21.80;65.00;;;;;;5091476;28;20432;-72
2022/09/11 01:26:51;;;;;;;10.02;3.60;;;21.80;64.80;;;;;;5091643;28;20040;-73
2022/09/11 01:29:33;;;;;;;8.93;3.65;;;21.80;64.70;;;;;;5091046;28;20031;-73
2022/09/11 01:32:20;;;;;;;7.57;3.05;;;21.80;64.80;;;;;;5092083;28;20028;-73
2022/09/11 01:35:00;;;;;;;9.63;3.70;;;21.80;64.80;;;;;;5092190;28;20028;-73
2022/09/11 01:37:43;;;;;;;6.72;3.03;;;21.80;64.80;;;;;;5088355;28;20051;-73
2022/09/11 01:40:19;;;;;;;6.78;3.15;;;21.80;64.70;;;;;;5090243;28;20032;-73
2022/09/11 01:42:51;;;;;;;7.22;3.08;;;21.80;64.70;;;;;;5090676;28;20461;-73
2022/09/11 01:45:18;;;;;;;6.55;3.28;;;21.80;64.60;;;;;;5090801;28;20034;-73
2022/09/11 01:47:48;;;;;;;6.32;3.33;;;21.80;64.60;;;;;;5090612;28;20043;-72
2022/09/11 01:50:16;;;;;;;6.68;3.03;;;21.80;64.70;;;;;;5089554;28;20032;-72
2022/09/11 01:52:49;;;;;;;5.30;2.90;;;21.80;64.60;;;;;;5083694;28;20032;-72
2022/09/11 01:55:22;;;;;;;6.47;2.83;;;21.80;64.60;;;;;;5081146;28;20021;-72
2022/09/11 01:57:57;;;;;;;7.15;2.80;;;21.80;64.60;;;;;;5085863;28;20016;-72
2022/09/11 02:00:23;;;;;;;8.82;2.85;;;21.80;64.60;;;;;;5100653;28;20111;-72
2022/09/11 02:03:06;;;;;;;6.38;3.20;;;21.80;64.70;;;;;;5081086;28;20457;-72
2022/09/11 02:05:44;;;;;;;7.70;3.30;;;21.80;64.90;;;;;;5082862;28;20032;-72
2022/09/11 02:08:49;;;;;;;5.88;2.95;;;21.80;64.90;;;;;;5087529;28;20035;-72
2022/09/11 02:11:20;;;;;;;6.45;2.80;;;21.80;64.70;;;;;;5077976;28;20048;-72
2022/09/11 02:14:04;;;;;;;7.63;3.10;;;21.80;64.80;;;;;;5078397;28;20345;-72
2022/09/11 02:16:50;;;;;;;4.38;2.72;;;21.80;64.80;;;;;;5101591;28;20028;-72
2022/09/11 02:19:25;;;;;;;5.80;3.05;;;21.80;64.80;;;;;;5071590;28;20415;-73
2022/09/11 02:21:51;;;;;;;7.90;3.20;;;21.80;64.80;;;;;;5071795;28;20081;-72
2022/09/11 02:24:19;;;;;;;7.07;3.00;;;21.80;65.00;;;;;;5088416;28;20032;-72
2022/09/11 02:27:00;;;;;;;6.25;2.80;;;21.80;64.90;;;;;;5073053;28;20055;-72
2022/09/11 02:29:28;;;;;;;4.68;2.65;;;21.80;64.70;;;;;;5071190;28;20056;-73
2022/09/11 02:31:54;;;;;;;7.63;2.83;;;21.80;64.80;;;;;;5071652;28;20028;-73
2022/09/11 02:34:28;;;;;;;5.60;2.88;;;21.70;64.70;;;;;;5071302;28;20549;-73
2022/09/11 02:37:03;;;;;;;7.82;2.70;;;21.80;64.80;;;;;;5087929;28;20044;-73
2022/09/11 02:39:56;;;;;;;7.45;2.63;;;21.80;65.00;;;;;;5071256;28;20134;-72
2022/09/11 02:42:43;;;;;;;6.78;2.65;;;21.80;64.80;;;;;;5088440;28;20028;-72
2022/09/11 02:45:42;;;;;;;6.32;2.50;;;21.80;64.90;;;;;;5088139;28;20096;-72
2022/09/11 02:48:49;;;;;;;8.48;2.88;;;21.80;64.70;;;;;;5065776;28;20078;-72
2022/09/11 02:51:40;;;;;;;5.40;2.80;;;21.80;64.70;;;;;;5071111;28;20031;-72
2022/09/11 02:54:42;;;;;;;6.65;2.67;;;21.70;64.80;;;;;;5087959;28;20401;-72
2022/09/11 02:57:30;;;;;;;8.20;3.33;;;21.80;64.80;;;;;;5088083;28;20036;-72
2022/09/11 02:59:59;;;;;;;7.68;2.78;;;21.70;64.70;;;;;;5070723;28;20024;-72
2022/09/11 03:02:28;;;;;;;5.68;2.60;;;21.70;64.80;;;;;;5070923;28;20028;-73
2022/09/11 03:04:55;;;;;;;4.25;2.70;;;21.70;64.80;;;;;;5054475;28;20419;-73
2022/09/11 03:07:24;;;;;;;4.45;2.58;;;21.70;64.70;;;;;;5072197;28;20034;-72
2022/09/11 03:09:50;;;;;;;8.20;2.60;;;21.80;64.60;;;;;;5070641;28;20021;-72
2022/09/11 03:12:20;;;;;;;5.72;2.65;;;21.70;64.50;;;;;;5087746;28;20024;-71
2022/09/11 03:14:48;;;;;;;7.95;2.72;;;21.70;64.30;;;;;;5070833;28;20042;-72
2022/09/11 03:17:15;;;;;;;5.47;2.95;;;21.70;64.50;;;;;;5070441;28;20024;-72
2022/09/11 03:19:41;;;;;;;4.00;2.33;;;21.80;64.50;;;;;;5053907;28;20028;-73
2022/09/11 03:22:07;;;;;;;5.25;2.50;;;21.80;64.50;;;;;;5087508;28;20024;-73
2022/09/11 03:24:33;;;;;;;9.25;3.05;;;21.80;64.40;;;;;;5071885;28;20489;-73
2022/09/11 03:26:59;;;;;;;5.05;3.05;;;21.80;64.50;;;;;;5070320;28;20482;-72
2022/09/11 03:29:27;;;;;;;6.95;2.85;;;21.80;64.30;;;;;;5070342;28;20028;-72
2022/09/11 03:31:57;;;;;;;4.70;2.75;;;21.80;64.40;;;;;;5071370;28;20028;-73
2022/09/11 03:34:24;;;;;;;6.47;2.90;;;21.80;64.30;;;;;;5070454;28;20248;-73
2022/09/11 03:36:50;;;;;;;6.65;3.20;;;21.80;64.30;;;;;;5070394;28;20021;-72
2022/09/11 03:39:17;;;;;;;7.03;3.33;;;21.80;64.50;;;;;;5086996;28;20024;-72
2022/09/11 03:41:42;;;;;;;7.80;3.67;;;21.80;64.30;;;;;;5087037;28;20385;-72
2022/09/11 03:44:11;;;;;;;6.38;3.42;;;21.80;64.30;;;;;;5071140;28;20113;-72
2022/09/11 03:46:37;;;;;;;8.90;4.30;;;21.80;64.50;;;;;;5070414;28;20036;-72
2022/09/11 03:49:05;;;;;;;6.85;3.67;;;21.80;64.30;;;;;;5070138;28;20078;-72
2022/09/11 03:51:32;;;;;;;8.40;3.60;;;21.80;64.30;;;;;;5086946;28;20039;-72
2022/09/11 03:53:59;;;;;;;6.25;3.55;;;21.80;64.20;;;;;;5070227;28;20025;-72
2022/09/11 03:56:27;;;;;;;10.18;3.75;;;21.80;64.30;;;;;;5053640;28;20028;-72
2022/09/11 03:59:00;;;;;;;5.72;3.50;;;21.80;64.30;;;;;;5069626;28;20028;-73
2022/09/11 04:01:28;;;;;;;6.88;3.80;;;21.70;64.20;;;;;;5069968;28;20024;-73
2022/09/11 04:03:54;;;;;;;8.40;3.88;;;21.70;64.30;;;;;;5071069;28;20033;-72
2022/09/11 04:06:27;;;;;;;6.43;3.70;;;21.80;64.50;;;;;;5086885;28;20040;-72
2022/09/11 04:08:53;;;;;;;6.72;3.75;;;21.70;64.30;;;;;;5086616;28;20028;-72
2022/09/11 04:11:21;;;;;;;9.40;3.90;;;21.70;64.20;;;;;;5086675;28;20043;-72
2022/09/11 04:13:48;;;;;;;5.68;3.70;;;21.70;64.10;;;;;;5070936;28;20064;-72
2022/09/11 04:16:18;;;;;;;8.02;4.00;;;21.70;64.20;;;;;;5071326;28;20021;-72
2022/09/11 04:18:47;;;;;;;7.68;3.92;;;21.70;64.10;;;;;;5069522;28;20028;-72
2022/09/11 04:21:16;;;;;;;7.70;3.75;;;21.70;64.20;;;;;;5086695;28;20024;-72
2022/09/11 04:23:44;;;;;;;7.07;4.32;;;21.70;64.30;;;;;;5069676;28;20032;-72
2022/09/11 04:26:19;;;;;;;6.05;3.85;;;21.70;64.00;;;;;;5069919;28;20039;-72
2022/09/11 04:28:49;;;;;;;7.68;4.43;;;21.70;64.10;;;;;;5070740;28;20029;-72
2022/09/11 04:31:17;;;;;;;8.15;4.07;;;21.70;64.10;;;;;;5069815;28;20029;-72
2022/09/11 04:33:44;;;;;;;7.60;4.05;;;21.70;64.10;;;;;;5069485;28;20024;-72
2022/09/11 04:36:14;;;;;;;10.85;4.32;;;21.70;64.00;;;;;;5070644;28;20036;-72
2022/09/11 04:38:40;;;;;;;8.05;4.28;;;21.70;64.20;;;;;;5069214;28;20473;-73
2022/09/11 04:41:07;;;;;;;8.35;4.60;;;21.70;64.20;;;;;;5069548;28;20086;-72
2022/09/11 04:43:35;;;;;;;7.53;4.28;;;21.70;64.30;;;;;;5069527;28;20075;-72
2022/09/11 04:46:13;;;;;;;8.70;4.10;;;21.70;64.00;;;;;;5069633;28;20087;-72
2022/09/11 04:48:52;;;;;;;9.48;4.85;;;21.70;64.10;;;;;;5069207;28;20095;-72
2022/09/11 04:51:28;;;;;;;10.77;5.28;;;21.70;64.10;;;;;;5069594;28;20404;-72
2022/09/11 04:53:56;;;;;;;9.10;5.03;;;21.70;64.10;;;;;;5069447;28;20035;-72
2022/09/11 04:56:27;;;;;;;11.13;5.72;;;21.70;64.10;;;;;;5072365;28;20542;-72
2022/09/11 04:58:57;;;;;;;7.78;4.65;;;21.70;64.20;;;;;;5089921;28;20028;-72
2022/09/11 05:01:26;;;;;;;8.05;4.47;;;21.70;64.30;;;;;;5090182;28;20024;-73
2022/09/11 05:03:55;;;;;;;11.50;5.43;;;21.70;64.20;;;;;;5085963;28;20032;-72
2022/09/11 05:06:22;;;;;;;9.13;4.80;;;21.70;64.20;;;;;;5091818;28;20510;-72
2022/09/11 05:08:49;;;;;;;7.20;4.35;;;21.70;64.30;;;;;;5092177;28;20040;-73
2022/09/11 05:11:19;;;;;;;9.10;5.63;;;21.70;64.30;;;;;;5092871;28;20063;-72
2022/09/11 05:13:46;;;;;;;9.13;4.80;;;21.70;64.20;;;;;;5092657;28;20127;-72
2022/09/11 05:16:15;;;;;;;7.50;4.60;;;21.70;64.10;;;;;;5093256;28;20036;-72
2022/09/11 05:18:47;;;;;;;11.95;6.20;;;21.70;64.30;;;;;;5092891;28;20365;-72
2022/09/11 05:21:15;;;;;;;9.90;6.15;;;21.70;64.20;;;;;;5093102;28;20024;-72
2022/09/11 05:23:41;;;;;;;7.95;5.20;;;21.70;64.30;;;;;;5093445;28;20024;-72
2022/09/11 05:26:14;;;;;;;8.95;5.57;;;21.70;64.30;;;;;;5092968;28;20377;-72
2022/09/11 05:28:39;;;;;;;9.80;5.65;;;21.70;64.30;;;;;;5092847;28;20050;-72
2022/09/11 05:31:16;;;;;;;7.95;4.90;;;21.70;64.20;;;;;;5076023;28;20095;-72
2022/09/11 05:33:44;;;;;;;9.77;5.72;;;21.70;64.20;;;;;;5092983;28;20024;-72
2022/09/11 05:36:11;;;;;;;9.70;5.57;;;21.70;64.30;;;;;;5075915;28;20020;-72
2022/09/11 05:38:38;;;;;;;10.13;6.13;;;21.70;64.20;;;;;;5092172;28;20344;-72
2022/09/11 05:41:06;;;;;;;7.80;5.15;;;21.70;64.30;;;;;;5092821;28;20625;-72
2022/09/11 05:43:33;;;;;;;7.93;5.57;;;21.70;64.30;;;;;;5092478;28;20108;-73
2022/09/11 05:45:59;;;;;;;9.55;6.18;;;21.70;64.20;;;;;;5092333;28;20028;-73
2022/09/11 05:48:29;;;;;;;12.50;6.75;;;21.70;64.20;;;;;;5092340;28;20028;-72
2022/09/11 05:50:59;;;;;;;8.35;5.32;;;21.70;64.20;;;;;;5075774;28;20464;-72
2022/09/11 05:53:32;;;;;;;11.35;6.22;;;21.70;64.30;;;;;;5092239;28;20046;-72
2022/09/11 05:56:06;;;;;;;10.85;5.82;;;21.70;64.20;;;;;;5075953;28;20061;-72
2022/09/11 05:58:32;;;;;;;10.25;5.78;;;21.70;64.30;;;;;;5075429;28;20028;-72
2022/09/11 06:01:10;;;;;;;10.43;6.10;;;21.70;64.20;;;;;;5092104;28;20090;-71
2022/09/11 06:03:39;;;;;;;10.57;6.78;;;21.70;64.30;;;;;;5092572;28;20120;-72
2022/09/11 06:06:07;;;;;;;;;;;21.70;64.90;;;;;;5076051;28;20040;-72
2022/09/11 06:08:37;;;;;;;10.90;6.40;;;21.70;64.30;;;;;;5075234;28;19994;-73
2022/09/11 06:11:08;;;;;;;11.27;6.93;;;21.70;64.30;;;;;;5058672;28;20028;-74
2022/09/11 06:13:40;;;;;;;11.55;6.50;;;21.70;64.40;;;;;;5091975;28;20028;-73
2022/09/11 06:16:12;;;;;;;13.65;6.45;;;21.70;64.30;;;;;;5092080;28;20093;-73
2022/09/11 06:18:38;;;;;;;11.60;6.97;;;21.70;64.40;;;;;;5092091;28;20275;-73
2022/09/11 06:21:09;;;;;;;10.95;6.80;;;21.70;64.40;;;;;;5075388;28;20419;-73
2022/09/11 06:23:41;;;;;;;14.77;7.32;;;21.70;64.40;;;;;;5091780;28;20111;-73
2022/09/11 06:26:12;;;;;;;13.18;6.78;;;21.70;64.50;;;;;;5092639;28;20515;-73
2022/09/11 06:28:41;;;;;;;11.00;6.97;;;21.70;64.60;;;;;;5074752;28;20059;-73
2022/09/11 06:31:11;;;;;;;11.23;6.10;;;21.70;64.60;;;;;;5091688;28;20036;-73
2022/09/11 06:33:39;;;;;;;11.75;6.57;;;21.70;64.60;;;;;;5091510;28;20031;-72
2022/09/11 06:36:17;;;;;;;11.00;6.70;;;21.70;64.70;;;;;;5075257;28;20541;-72
2022/09/11 06:38:44;;;;;;;9.63;6.00;;;21.70;64.60;;;;;;5074504;28;20036;-73
2022/09/11 06:41:15;;;;;;;13.70;7.63;;;21.70;64.60;;;;;;5091574;28;20031;-73
2022/09/11 06:43:42;;;;;;;13.48;8.50;;;21.70;64.70;;;;;;5089713;28;20031;-73
2022/09/11 06:46:11;;;;;;;12.30;7.85;;;21.70;64.70;;;;;;5088946;28;20144;-73
2022/09/11 06:48:39;;;;;;;10.95;7.05;;;21.70;64.60;;;;;;5074343;28;20073;-74
2022/09/11 06:51:08;;;;;;;16.55;7.80;;;21.70;64.60;;;;;;5074650;28;20032;-72
2022/09/11 06:53:34;;;;;;;14.60;7.35;;;21.70;64.70;;;;;;5074294;28;20074;-72
2022/09/11 06:56:06;;;;;;;13.13;7.22;;;21.70;64.80;;;;;;5091432;28;20100;-72
2022/09/11 06:58:33;;;;;;;12.93;7.93;;;21.70;64.80;;;;;;5073987;28;20366;-72
2022/09/11 07:01:04;;;;;;;13.10;7.38;;;21.70;64.70;;;;;;5057988;28;20392;-73
2022/09/11 07:03:31;;;;;;;12.70;7.25;;;21.70;64.80;;;;;;5090977;28;20445;-72
2022/09/11 07:05:59;;;;;;;13.13;8.25;;;21.70;64.80;;;;;;5091173;28;20039;-72
2022/09/11 07:08:26;;;;;;;13.48;8.35;;;21.70;65.40;;;;;;5090688;28;20047;-73
2022/09/11 07:11:01;;;;;;;12.52;7.68;;;21.70;64.80;;;;;;5091071;28;20062;-72
2022/09/11 07:13:28;;;;;;;13.32;7.57;;;21.70;64.80;;;;;;5074162;28;20420;-73
2022/09/11 07:16:02;;;;;;;12.55;7.35;;;21.70;64.80;;;;;;5090579;28;20024;-73
2022/09/11 07:18:42;;;;;;;14.20;7.15;;;21.70;64.80;;;;;;5073245;28;20028;-73
2022/09/11 07:21:15;;;;;;;15.30;7.68;;;21.70;64.80;;;;;;5090895;28;20103;-73
2022/09/11 07:23:44;;;;;;;11.45;7.20;;;21.70;64.80;;;;;;5090747;28;20024;-73
2022/09/11 07:26:12;;;;;;;11.88;7.00;;;21.70;64.80;;;;;;5090895;28;20028;-73
2022/09/11 07:28:41;;;;;;;13.23;7.90;;;21.70;64.90;;;;;;5057009;28;20511;-73
2022/09/11 07:31:10;;;;;;;9.57;6.37;;;21.70;64.80;;;;;;5090741;28;20114;-73
2022/09/11 07:33:37;;;;;;;13.75;7.47;;;21.70;64.80;;;;;;5057483;28;20040;-72
2022/09/11 07:36:10;;;;;;;12.20;7.22;;;21.70;64.80;;;;;;5091833;28;20030;-72
2022/09/11 07:38:40;;;;;;;11.90;7.15;;;21.70;64.80;;;;;;5090492;28;20032;-73
2022/09/11 07:41:10;;;;;;;12.55;7.35;;;21.70;64.90;;;;;;5090441;28;20024;-72
2022/09/11 07:43:41;;;;;;;10.50;6.60;;;21.70;64.80;;;;;;5090377;28;20036;-72
2022/09/11 07:46:09;;;;;;;10.38;7.00;;;21.70;64.80;;;;;;5073685;28;20506;-72
2022/09/11 07:48:35;;;;;;;11.20;6.97;;;21.70;64.90;;;;;;5090303;28;20024;-72
2022/09/11 07:51:03;;;;;;;12.32;7.32;;;21.70;65.00;;;;;;5090200;28;20038;-73
2022/09/11 07:53:34;;;;;;;10.60;6.47;;;21.70;65.00;;;;;;5073712;28;20089;-73
2022/09/11 07:56:05;;;;;;;11.43;6.15;;;21.70;64.90;;;;;;5090215;28;20389;-73
2022/09/11 07:58:36;;;;;;;14.65;6.85;;;21.70;64.90;;;;;;5091297;28;20028;-72
2022/09/11 08:01:07;;;;;;;10.57;5.72;;;21.80;65.00;;;;;;5073993;28;20028;-72
2022/09/11 08:03:35;;;;;;;11.70;6.20;;;21.70;64.80;;;;;;5090249;28;20032;-73
2022/09/11 08:06:08;;;;;;;12.00;6.20;;;21.70;64.80;;;;;;5091218;28;20021;-73
2022/09/11 08:08:36;;;;;;;11.60;6.65;;;21.80;65.00;;;;;;5072978;28;20077;-73
2022/09/11 08:11:05;;;;;;;12.73;6.70;;;21.80;64.80;;;;;;5089836;28;20028;-74
2022/09/11 08:13:32;;;;;;;9.85;6.25;;;21.80;64.80;;;;;;5091402;28;20035;-73
2022/09/11 08:15:59;;;;;;;10.00;6.03;;;21.80;64.80;;;;;;5072896;28;20035;-72
2022/09/11 08:18:26;;;;;;;11.63;6.55;;;21.80;64.90;;;;;;5089901;28;20031;-73
2022/09/11 08:20:51;;;;;;;10.85;6.38;;;21.80;64.80;;;;;;5089809;28;20442;-72
2022/09/11 08:23:17;;;;;;;9.45;6.18;;;21.80;64.80;;;;;;5090044;28;20103;-73
2022/09/11 08:25:44;;;;;;;11.55;5.70;;;21.80;64.90;;;;;;5089611;28;20028;-73
2022/09/11 08:28:10;;;;;;;9.32;5.70;;;21.80;64.80;;;;;;5089830;28;20474;-72
2022/09/11 08:30:37;;;;;;;9.38;5.97;;;21.80;64.90;;;;;;5075836;28;20552;-73
2022/09/11 08:33:08;;;;;;;13.00;6.22;;;21.80;65.00;;;;;;5094201;28;20477;-73
2022/09/11 08:35:35;;;;;;;9.77;6.22;;;21.80;65.00;;;;;;5077276;28;20420;-72
2022/09/11 08:38:02;;;;;;;11.38;6.32;;;21.80;64.90;;;;;;5076965;28;20028;-72
2022/09/11 08:40:29;;;;;;;9.18;6.05;;;21.80;65.00;;;;;;5094096;28;20028;-73
2022/09/11 08:43:01;;;;;;;10.13;6.68;;;21.80;64.90;;;;;;5093878;28;20028;-73
2022/09/11 08:45:33;;;;;;;11.25;6.35;;;21.80;65.10;;;;;;5094337;28;20020;-73
2022/09/11 08:48:00;;;;;;;11.23;6.45;;;21.80;65.00;;;;;;5076978;28;20445;-73
2022/09/11 08:50:41;;;;;;;10.18;5.85;;;21.80;65.00;;;;;;5077112;28;20032;-73
2022/09/11 08:53:14;;;;;;;;;;;21.80;65.00;;;;;;5077354;28;20036;-73
2022/09/11 08:55:51;;;;;;;9.88;6.05;;;21.80;64.90;;;;;;5076819;28;19908;-73
2022/09/11 08:58:23;;;;;;;11.38;6.38;;;21.80;65.00;;;;;;5093435;28;20502;-73
2022/09/11 09:01:16;;;;;;;10.05;5.72;;;21.80;65.10;;;;;;5076592;28;20393;-73
2022/09/11 09:03:54;;;;;;;10.20;5.95;;;21.80;65.20;;;;;;5076644;28;20555;-73
2022/09/11 09:06:34;;;;;;;11.43;5.95;;;21.80;65.30;;;;;;5093752;28;20028;-73
2022/09/11 09:09:00;;;;;;;11.00;6.20;;;21.80;65.10;;;;;;5093011;28;20032;-73
2022/09/11 09:11:46;;;;;;;9.70;5.80;;;21.80;65.20;;;;;;5076468;28;20028;-73
2022/09/11 09:14:30;;;;;;;8.98;6.07;;;21.80;65.10;;;;;;5093224;28;20028;-73
2022/09/11 09:17:23;;;;;;;8.60;5.78;;;21.80;65.30;;;;;;5093301;28;20032;-73
2022/09/11 09:19:59;;;;;;;10.38;5.85;;;21.70;65.30;;;;;;5093086;28;20111;-73
2022/09/11 09:22:28;;;;;;;11.23;6.15;;;21.70;65.30;;;;;;5093108;28;20028;-73
2022/09/11 09:25:03;;;;;;;9.98;6.65;;;21.80;65.80;;;;;;5076514;28;20488;-72
2022/09/11 09:27:34;;;;;;;9.80;5.53;;;21.70;65.30;;;;;;5092944;28;20494;-73
2022/09/11 09:30:12;;;;;;;9.30;6.20;;;21.70;65.30;;;;;;5092660;28;20048;-74
2022/09/11 09:32:49;;;;;;;9.85;5.88;;;21.70;65.20;;;;;;5092803;28;20093;-74
2022/09/11 09:35:23;;;;;;;8.32;5.40;;;21.70;65.20;;;;;;5076307;28;20468;-73
2022/09/11 09:37:51;;;;;;;9.93;6.45;;;21.70;65.30;;;;;;5092624;28;20024;-72
2022/09/11 09:40:18;;;;;;;8.73;5.95;;;21.70;65.30;;;;;;5092504;28;20020;-73
2022/09/11 09:43:28;;;;;;;9.80;6.22;;;21.70;65.30;;;;;;5075668;28;20089;-72
2022/09/11 09:46:04;;;;;;;11.27;6.60;;;21.80;65.30;;;;;;5084296;28;20040;-73
2022/09/11 09:48:37;;;;;;;12.43;6.35;;;21.80;65.40;;;;;;5093705;28;20123;-73
2022/09/11 09:51:03;;;;;;;10.00;5.88;;;21.80;65.20;;;;;;5093981;28;20074;-74
2022/09/11 09:53:40;;;;;;;10.77;5.93;;;21.80;65.20;;;;;;5093643;28;20027;-74
2022/09/11 09:56:06;;;;;;;9.75;5.90;;;21.80;65.30;;;;;;5093808;28;20507;-73
2022/09/11 09:58:38;;;;;;;9.00;5.53;;;21.80;65.30;;;;;;5073525;28;20027;-73
2022/09/11 10:01:26;;;;;;;10.98;5.82;;;21.80;65.30;;;;;;5081915;28;20016;-74
2022/09/11 10:04:12;;;;;;;10.35;5.82;;;21.80;65.40;;;;;;5083733;28;20032;-73
2022/09/11 10:06:38;;;;;;;11.68;6.43;;;21.80;65.50;;;;;;5084895;28;20040;-73
2022/09/11 10:09:05;;;;;;;9.40;6.10;;;21.80;65.70;;;;;;5077451;28;20063;-73
2022/09/11 10:11:34;;;;;;;8.75;5.82;;;21.80;65.40;;;;;;5078637;28;20056;-73
2022/09/11 10:13:59;;;;;;;11.25;6.57;;;21.80;65.60;;;;;;5089474;28;20028;-73
2022/09/11 10:16:26;;;;;;;10.88;6.10;;;21.80;65.40;;;;;;5093450;28;20020;-73
2022/09/11 10:18:54;;;;;;;8.73;5.43;;;21.80;65.40;;;;;;5091886;28;20032;-73
2022/09/11 10:21:23;;;;;;;9.38;5.40;;;21.80;65.30;;;;;;5091949;28;20031;-73
2022/09/11 10:23:56;;;;;;;8.80;6.05;;;21.80;65.20;;;;;;5093228;28;20404;-73
2022/09/11 10:26:25;;;;;;;11.68;6.28;;;21.70;65.30;;;;;;5091876;28;20081;-73
2022/09/11 10:28:59;;;;;;;12.10;6.82;;;21.80;65.40;;;;;;5093116;28;20116;-73
2022/09/11 10:31:28;;;;;;;11.55;6.10;;;21.80;66.10;;;;;;5086185;28;20025;-73
2022/09/11 10:33:57;;;;;;;10.90;5.70;;;21.80;65.50;;;;;;5092940;28;20024;-73
2022/09/11 10:36:28;;;;;;;13.38;6.32;;;21.80;65.40;;;;;;5083543;28;20081;-74
2022/09/11 10:38:59;;;;;;;12.30;6.30;;;21.80;65.70;;;;;;5092469;28;20077;-75
2022/09/11 10:41:33;;;;;;;10.50;6.68;;;21.80;65.70;;;;;;5091523;28;20056;-75
2022/09/11 10:44:01;;;;;;;14.88;7.30;;;21.80;65.60;;;;;;5092604;28;20028;-75
2022/09/11 10:46:38;;;;;;;13.02;7.45;;;21.80;65.60;;;;;;5093134;28;20036;-76
2022/09/11 10:49:03;;;;;;;15.10;6.70;;;21.80;66.30;;;;;;5080796;28;20032;-74
2022/09/11 10:51:32;;;;;;;12.20;7.03;;;21.80;65.90;;;;;;5085349;28;20300;-75
2022/09/11 10:54:19;;;;;;;14.57;7.70;;;21.80;65.70;;;;;;5091450;28;20028;-75
2022/09/11 10:56:54;;;;;;;12.00;6.97;;;21.80;66.40;;;;;;5080748;28;20392;-72
2022/09/11 10:59:25;;;;;;;11.52;7.07;;;21.90;65.90;;;;;;5083292;28;20380;-73
2022/09/11 11:01:52;;;;;;;24.45;16.08;;;21.80;66.00;;;;;;5083602;28;20020;-72
2022/09/11 11:04:19;;;;;;;25.05;17.70;;;21.80;66.10;;;;;;5063313;28;20647;-72
2022/09/11 11:07:18;;;;;;;20.67;12.60;;;21.80;66.30;;;;;;5085235;22;20071;-76
2022/09/11 11:10:07;;;;;;;21.60;13.23;;;21.80;66.30;;;;;;5063066;28;20033;-76
2022/09/11 11:12:49;;;;;;;23.13;11.90;;;21.80;66.10;;;;;;5032779;28;20036;-78
2022/09/11 11:15:33;;;;;;;25.10;12.10;;;21.80;65.60;;;;;;5056696;28;20063;-77
2022/09/11 11:18:10;;;;;;;18.25;9.43;;;21.90;65.80;;;;;;5089821;28;20110;-77
2022/09/11 11:21:08;;;;;;;15.63;9.45;;;21.90;65.20;;;;;;5054521;28;20439;-77
2022/09/11 11:23:44;;;;;;;15.35;8.40;;;21.90;65.50;;;;;;5058716;28;20492;-77
2022/09/11 11:26:48;;;;;;;12.43;7.60;;;21.90;65.50;;;;;;5071984;28;20115;-77
2022/09/11 11:29:59;;;;;;;12.35;8.18;;;21.90;65.90;;;;;;5089322;28;20032;-77
2022/09/11 11:32:34;;;;;;;12.80;7.85;;;21.90;65.90;;;;;;5067947;28;20040;-77
2022/09/11 11:35:25;;;;;;;11.70;6.63;;;21.90;66.60;;;;;;5089375;28;20108;-77
2022/09/11 11:38:06;;;;;;;11.50;7.38;;;21.90;65.90;;;;;;5067214;28;20040;-77
2022/09/11 11:40:46;;;;;;;14.70;7.57;;;21.90;66.00;;;;;;5086155;28;20036;-78
2022/09/11 11:43:18;;;;;;;11.65;6.88;;;21.90;66.30;;;;;;5067486;28;20127;-76
2022/09/11 11:46:01;;;;;;;11.68;6.72;;;21.80;66.20;;;;;;5055273;28;20493;-77
2022/09/11 11:48:43;;;;;;;10.85;6.45;;;21.80;66.30;;;;;;5033698;28;20044;-76
2022/09/11 11:51:16;;;;;;;11.30;6.50;;;21.80;66.20;;;;;;5070989;28;20042;-77
2022/09/11 11:53:47;;;;;;;10.55;6.00;;;21.80;66.20;;;;;;5085823;28;20065;-77
2022/09/11 11:56:16;;;;;;;10.05;6.45;;;21.80;66.30;;;;;;5070825;28;20066;-77
2022/09/11 11:59:19;;;;;;;11.53;6.50;;;21.80;66.40;;;;;;5088530;28;20028;-77
2022/09/11 12:02:03;;;;;;;11.20;6.03;;;21.80;66.40;;;;;;5088616;28;20032;-77
2022/09/11 12:05:04;;;;;;;9.30;5.65;;;21.80;66.40;;;;;;5084675;28;20043;-77
2022/09/11 12:07:32;;;;;;;19.05;6.40;;;21.80;66.40;;;;;;5008584;28;20040;-76
2022/09/11 12:10:00;;;;;;;13.05;5.22;;;21.80;66.50;;;;;;5088312;28;20050;-76
2022/09/11 12:12:32;;;;;;;24.90;6.03;;;21.80;66.30;;;;;;5070468;28;20039;-76
2022/09/11 12:15:06;;;;;;;11.95;5.20;;;21.80;66.10;;;;;;5067402;28;20131;-77
2022/09/11 12:17:35;;;;;;;10.73;4.70;;;21.80;66.20;;;;;;5070183;28;20047;-76
2022/09/11 12:20:10;;;;;;;12.13;5.05;;;21.80;65.80;;;;;;5070402;28;20137;-77
2022/09/11 12:22:44;;;;;;;11.52;4.80;;;21.80;65.90;;;;;;5086514;28;20145;-77
2022/09/11 12:25:22;;;;;;;9.98;5.10;;;21.80;65.70;;;;;;5064238;28;20464;-76
2022/09/11 12:27:52;;;;;;;10.68;4.85;;;21.80;65.70;;;;;;5070578;28;20028;-75
2022/09/11 12:30:19;;;;;;;14.60;4.93;;;21.80;65.80;;;;;;5085936;28;20024;-74
2022/09/11 12:32:55;;;;;;;13.75;5.20;;;21.80;65.60;;;;;;5088007;28;20420;-75
2022/09/11 12:35:40;;;;;;;14.27;4.93;;;21.80;65.60;;;;;;5070424;28;20395;-74
2022/09/11 12:38:06;;;;;;;10.85;4.43;;;21.80;65.50;;;;;;5087085;28;20055;-75
2022/09/11 12:40:41;;;;;;;13.05;5.32;;;21.80;65.50;;;;;;5090630;28;20034;-75
2022/09/11 12:43:27;;;;;;;8.25;5.00;;;21.80;65.40;;;;;;5091223;28;20027;-75
2022/09/11 12:45:53;;;;;;;9.88;4.82;;;21.80;65.40;;;;;;5090867;28;20585;-75
2022/09/11 12:48:22;;;;;;;9.63;4.88;;;21.80;65.40;;;;;;5091104;28;20028;-75
2022/09/11 12:50:51;;;;;;;10.63;5.20;;;21.80;65.40;;;;;;5091148;28;20020;-75
2022/09/11 12:53:22;;;;;;;8.93;4.67;;;21.80;65.40;;;;;;5090934;28;20063;-75
2022/09/11 12:55:54;;;;;;;12.23;4.72;;;21.90;65.50;;;;;;5090835;28;20020;-76
2022/09/11 12:58:27;;;;;;;7.63;4.80;;;21.90;65.40;;;;;;5073000;28;20051;-76
2022/09/11 13:01:14;;;;;;;10.70;4.82;;;21.90;65.40;;;;;;5090927;28;20024;-76
2022/09/11 13:03:52;;;;;;;9.45;4.88;;;21.80;65.40;;;;;;5091087;28;20032;-76
2022/09/11 13:06:18;;;;;;;9.48;4.50;;;21.90;65.40;;;;;;5090680;28;20032;-76
2022/09/11 13:08:53;;;;;;;10.27;4.88;;;21.90;65.50;;;;;;5088711;28;20019;-77